sensor_id;sensor_type;location;lat;lon;timestamp;pressure;altitude;pressure_sealevel;temperature;humidity
33191;BME280;19554;42.652;23.364;2023-09-19T00:01:43;95007.94;;;17.74;61.11
33191;BME280;19554;42.652;23.364;2023-09-19T00:04:11;95003.69;;;17.64;61.79
33191;BME280;19554;42.652;23.364;2023-09-19T00:06:37;95020.84;;;17.68;61.60
33191;BME280;19554;42.652;23.364;2023-09-19T00:09:03;95010.81;;;17.69;61.78
33191;BME280;19554;42.652;23.364;2023-09-19T00:11:28;95008.59;;;17.80;61.39
33191;BME280;19554;42.652;23.364;2023-09-19T00:13:54;95017.47;;;17.89;61.29
33191;BME280;19554;42.652;23.364;2023-09-19T00:16:19;95002.34;;;17.88;61.54
33191;BME280;19554;42.652;23.364;2023-09-19T00:18:45;95005.88;;;17.80;61.66
33191;BME280;19554;42.652;23.364;2023-09-19T00:21:10;94997.31;;;17.77;61.73
33191;BME280;19554;42.652;23.364;2023-09-19T00:23:36;95000.97;;;17.82;61.54
33191;BME280;19554;42.652;23.364;2023-09-19T00:26:01;95002.53;;;17.74;62.27
33191;BME280;19554;42.652;23.364;2023-09-19T00:28:27;95002.09;;;17.63;62.50
33191;BME280;19554;42.652;23.364;2023-09-19T00:30:52;94997.94;;;17.74;62.32
33191;BME280;19554;42.652;23.364;2023-09-19T00:33:19;94995.72;;;17.76;62.58
33191;BME280;19554;42.652;23.364;2023-09-19T00:35:51;94995.88;;;17.80;62.42
33191;BME280;19554;42.652;23.364;2023-09-19T00:38:17;95006.84;;;17.66;62.63
33191;BME280;19554;42.652;23.364;2023-09-19T00:40:46;94992.97;;;17.38;64.05
33191;BME280;19554;42.652;23.364;2023-09-19T00:43:11;94991.50;;;17.49;63.58
33191;BME280;19554;42.652;23.364;2023-09-19T00:45:37;94999.28;;;17.51;63.68
33191;BME280;19554;42.652;23.364;2023-09-19T00:48:07;94981.53;;;17.33;64.15
33191;BME280;19554;42.652;23.364;2023-09-19T00:50:34;94982.84;;;17.26;64.51
33191;BME280;19554;42.652;23.364;2023-09-19T00:52:59;94982.84;;;17.26;64.67
33191;BME280;19554;42.652;23.364;2023-09-19T00:55:25;94980.97;;;17.10;65.21
33191;BME280;19554;42.652;23.364;2023-09-19T00:57:50;94982.38;;;17.07;65.47
33191;BME280;19554;42.652;23.364;2023-09-19T01:00:16;94993.16;;;16.98;66.01
33191;BME280;19554;42.652;23.364;2023-09-19T01:02:44;94987.94;;;16.85;66.40
33191;BME280;19554;42.652;23.364;2023-09-19T01:05:10;94984.47;;;16.93;66.39
33191;BME280;19554;42.652;23.364;2023-09-19T01:07:35;94991.09;;;17.04;66.05
33191;BME280;19554;42.652;23.364;2023-09-19T01:10:04;94992.69;;;17.05;66.14
33191;BME280;19554;42.652;23.364;2023-09-19T01:12:37;94993.63;;;16.92;66.54
33191;BME280;19554;42.652;23.364;2023-09-19T01:15:11;94997.25;;;16.70;67.22
33191;BME280;19554;42.652;23.364;2023-09-19T01:17:51;94986.63;;;16.73;67.49
33191;BME280;19554;42.652;23.364;2023-09-19T01:23:01;94978.25;;;16.75;67.72
33191;BME280;19554;42.652;23.364;2023-09-19T01:30:43;94982.84;;;17.09;66.13
33191;BME280;19554;42.652;23.364;2023-09-19T01:33:09;94990.16;;;17.00;66.37
33191;BME280;19554;42.652;23.364;2023-09-19T01:35:37;94986.97;;;17.15;66.15
33191;BME280;19554;42.652;23.364;2023-09-19T01:38:04;94989.16;;;17.31;65.67
33191;BME280;19554;42.652;23.364;2023-09-19T01:40:29;94979.94;;;17.32;65.40
33191;BME280;19554;42.652;23.364;2023-09-19T01:42:59;94976.63;;;17.26;65.66
33191;BME280;19554;42.652;23.364;2023-09-19T01:45:33;94970.13;;;17.18;65.92
33191;BME280;19554;42.652;23.364;2023-09-19T01:48:14;94973.31;;;17.20;65.59
33191;BME280;19554;42.652;23.364;2023-09-19T01:50:45;94969.50;;;17.21;65.64
33191;BME280;19554;42.652;23.364;2023-09-19T01:54:00;94981.25;;;17.08;65.98
33191;BME280;19554;42.652;23.364;2023-09-19T01:56:00;94980.13;;;17.18;65.89
33191;BME280;19554;42.652;23.364;2023-09-19T01:58:29;94971.56;;;17.24;65.41
33191;BME280;19554;42.652;23.364;2023-09-19T02:00:56;94971.84;;;17.40;64.86
33191;BME280;19554;42.652;23.364;2023-09-19T02:03:23;94981.50;;;17.50;64.62
33191;BME280;19554;42.652;23.364;2023-09-19T02:05:51;94989.06;;;17.65;63.88
33191;BME280;19554;42.652;23.364;2023-09-19T02:08:19;94996.66;;;17.81;63.06
33191;BME280;19554;42.652;23.364;2023-09-19T02:10:44;94995.22;;;17.92;62.20
33191;BME280;19554;42.652;23.364;2023-09-19T02:13:15;94983.56;;;18.00;61.84
33191;BME280;19554;42.652;23.364;2023-09-19T02:15:40;94987.47;;;18.11;61.46
33191;BME280;19554;42.652;23.364;2023-09-19T02:18:06;94983.03;;;18.15;60.75
33191;BME280;19554;42.652;23.364;2023-09-19T02:20:32;94986.31;;;18.21;60.51
33191;BME280;19554;42.652;23.364;2023-09-19T02:22:58;94989.28;;;18.28;60.42
33191;BME280;19554;42.652;23.364;2023-09-19T02:25:23;94988.34;;;18.33;60.35
33191;BME280;19554;42.652;23.364;2023-09-19T02:27:51;94980.59;;;18.22;60.38
33191;BME280;19554;42.652;23.364;2023-09-19T02:30:19;94984.69;;;18.29;60.28
33191;BME280;19554;42.652;23.364;2023-09-19T02:32:46;94984.81;;;18.32;60.29
33191;BME280;19554;42.652;23.364;2023-09-19T02:35:11;94978.63;;;18.32;60.45
33191;BME280;19554;42.652;23.364;2023-09-19T02:37:37;94973.88;;;18.29;60.25
33191;BME280;19554;42.652;23.364;2023-09-19T02:40:02;94961.47;;;18.28;60.62
33191;BME280;19554;42.652;23.364;2023-09-19T02:42:30;94963.88;;;18.29;60.77
33191;BME280;19554;42.652;23.364;2023-09-19T02:44:55;94956.06;;;18.28;61.07
33191;BME280;19554;42.652;23.364;2023-09-19T02:47:21;94955.16;;;18.23;60.92
33191;BME280;19554;42.652;23.364;2023-09-19T02:49:47;94952.44;;;18.23;61.09
33191;BME280;19554;42.652;23.364;2023-09-19T02:52:13;94953.59;;;18.22;60.83
33191;BME280;19554;42.652;23.364;2023-09-19T02:54:39;94950.41;;;18.20;60.34
33191;BME280;19554;42.652;23.364;2023-09-19T02:57:05;94945.66;;;18.17;60.21
33191;BME280;19554;42.652;23.364;2023-09-19T02:59:31;94947.91;;;18.15;60.47
33191;BME280;19554;42.652;23.364;2023-09-19T03:01:57;94942.81;;;18.14;60.54
33191;BME280;19554;42.652;23.364;2023-09-19T03:04:22;94935.88;;;18.04;61.16
33191;BME280;19554;42.652;23.364;2023-09-19T03:06:48;94940.63;;;18.07;61.28
33191;BME280;19554;42.652;23.364;2023-09-19T03:09:16;94931.41;;;18.08;61.38
33191;BME280;19554;42.652;23.364;2023-09-19T03:11:42;94926.00;;;18.08;62.03
33191;BME280;19554;42.652;23.364;2023-09-19T03:14:07;94935.59;;;17.97;62.10
33191;BME280;19554;42.652;23.364;2023-09-19T03:16:33;94935.81;;;17.83;62.55
33191;BME280;19554;42.652;23.364;2023-09-19T03:18:58;94944.31;;;17.64;63.17
33191;BME280;19554;42.652;23.364;2023-09-19T03:21:24;94942.34;;;17.35;64.58
33191;BME280;19554;42.652;23.364;2023-09-19T03:23:50;94940.59;;;17.31;64.99
33191;BME280;19554;42.652;23.364;2023-09-19T03:26:15;94935.50;;;17.38;65.04
33191;BME280;19554;42.652;23.364;2023-09-19T03:28:41;94928.81;;;17.44;64.72
33191;BME280;19554;42.652;23.364;2023-09-19T03:31:08;94929.91;;;17.51;64.29
33191;BME280;19554;42.652;23.364;2023-09-19T03:33:33;94934.16;;;17.61;63.90
33191;BME280;19554;42.652;23.364;2023-09-19T03:35:59;94939.84;;;17.68;63.60
33191;BME280;19554;42.652;23.364;2023-09-19T03:38:26;94937.13;;;17.77;62.57
33191;BME280;19554;42.652;23.364;2023-09-19T03:40:51;94934.09;;;17.79;61.64
33191;BME280;19554;42.652;23.364;2023-09-19T03:43:16;94941.09;;;17.80;61.17
33191;BME280;19554;42.652;23.364;2023-09-19T03:45:42;94941.72;;;17.76;60.81
33191;BME280;19554;42.652;23.364;2023-09-19T03:48:08;94939.66;;;17.73;60.79
33191;BME280;19554;42.652;23.364;2023-09-19T03:50:33;94942.53;;;17.68;60.62
33191;BME280;19554;42.652;23.364;2023-09-19T03:52:59;94946.81;;;17.69;60.63
33191;BME280;19554;42.652;23.364;2023-09-19T03:55:24;94951.44;;;17.69;60.83
33191;BME280;19554;42.652;23.364;2023-09-19T03:57:49;94951.44;;;17.69;60.84
33191;BME280;19554;42.652;23.364;2023-09-19T04:00:15;94962.22;;;17.69;61.02
33191;BME280;19554;42.652;23.364;2023-09-19T04:02:43;94958.75;;;17.68;60.70
33191;BME280;19554;42.652;23.364;2023-09-19T04:05:08;94954.44;;;17.67;60.05
33191;BME280;19554;42.652;23.364;2023-09-19T04:07:34;94958.91;;;17.63;59.58
33191;BME280;19554;42.652;23.364;2023-09-19T04:10:00;94957.31;;;17.62;59.62
33191;BME280;19554;42.652;23.364;2023-09-19T04:12:25;94965.75;;;17.61;59.88
33191;BME280;19554;42.652;23.364;2023-09-19T04:14:50;94966.56;;;17.61;59.81
33191;BME280;19554;42.652;23.364;2023-09-19T04:17:16;94962.88;;;17.66;60.64
33191;BME280;19554;42.652;23.364;2023-09-19T04:19:42;94970.03;;;17.62;59.84
33191;BME280;19554;42.652;23.364;2023-09-19T04:22:07;94974.16;;;17.59;59.64
33191;BME280;19554;42.652;23.364;2023-09-19T04:24:32;94981.63;;;17.62;59.83
33191;BME280;19554;42.652;23.364;2023-09-19T04:26:59;94979.06;;;17.74;59.44
33191;BME280;19554;42.652;23.364;2023-09-19T04:29:24;94970.63;;;17.85;58.65
33191;BME280;19554;42.652;23.364;2023-09-19T04:31:51;94967.34;;;18.00;58.53
33191;BME280;19554;42.652;23.364;2023-09-19T04:34:17;94962.50;;;18.14;58.48
33191;BME280;19554;42.652;23.364;2023-09-19T04:36:42;94963.19;;;18.32;57.76
33191;BME280;19554;42.652;23.364;2023-09-19T04:39:08;94963.91;;;18.50;57.37
33191;BME280;19554;42.652;23.364;2023-09-19T04:41:35;94964.41;;;18.64;57.38
33191;BME280;19554;42.652;23.364;2023-09-19T04:44:04;94965.88;;;18.83;56.70
33191;BME280;19554;42.652;23.364;2023-09-19T04:46:29;94968.41;;;18.88;56.28
33191;BME280;19554;42.652;23.364;2023-09-19T04:48:55;94960.06;;;18.93;56.09
33191;BME280;19554;42.652;23.364;2023-09-19T04:51:20;94958.75;;;18.99;55.98
33191;BME280;19554;42.652;23.364;2023-09-19T04:53:45;94957.19;;;18.98;56.31
33191;BME280;19554;42.652;23.364;2023-09-19T04:56:11;94951.91;;;19.02;56.36
33191;BME280;19554;42.652;23.364;2023-09-19T04:58:36;94952.28;;;19.12;56.29
33191;BME280;19554;42.652;23.364;2023-09-19T05:01:01;94948.25;;;19.31;56.02
33191;BME280;19554;42.652;23.364;2023-09-19T05:03:27;94950.56;;;19.53;55.22
33191;BME280;19554;42.652;23.364;2023-09-19T05:05:53;94940.25;;;19.68;54.79
33191;BME280;19554;42.652;23.364;2023-09-19T05:08:18;94936.63;;;19.76;54.77
33191;BME280;19554;42.652;23.364;2023-09-19T05:10:43;94933.03;;;19.84;55.30
33191;BME280;19554;42.652;23.364;2023-09-19T05:13:10;94932.69;;;19.73;55.69
33191;BME280;19554;42.652;23.364;2023-09-19T05:15:37;94939.44;;;19.67;55.85
33191;BME280;19554;42.652;23.364;2023-09-19T05:18:02;94939.44;;;19.67;56.09
33191;BME280;19554;42.652;23.364;2023-09-19T05:20:28;94939.25;;;19.84;55.68
33191;BME280;19554;42.652;23.364;2023-09-19T05:25:25;94942.28;;;19.71;56.40
33191;BME280;19554;42.652;23.364;2023-09-19T05:27:53;94932.13;;;19.80;56.23
33191;BME280;19554;42.652;23.364;2023-09-19T05:30:18;94926.84;;;19.83;56.27
33191;BME280;19554;42.652;23.364;2023-09-19T05:32:45;94922.53;;;19.95;55.82
33191;BME280;19554;42.652;23.364;2023-09-19T05:35:10;94931.47;;;20.07;55.73
33191;BME280;19554;42.652;23.364;2023-09-19T05:37:38;94931.91;;;20.22;55.19
33191;BME280;19554;42.652;23.364;2023-09-19T05:40:03;94927.03;;;20.52;54.87
33191;BME280;19554;42.652;23.364;2023-09-19T05:42:32;94928.09;;;20.75;53.84
33191;BME280;19554;42.652;23.364;2023-09-19T05:44:57;94934.41;;;20.79;53.57
33191;BME280;19554;42.652;23.364;2023-09-19T05:47:23;94921.84;;;20.75;53.51
33191;BME280;19554;42.652;23.364;2023-09-19T05:49:50;94927.38;;;20.78;53.41
33191;BME280;19554;42.652;23.364;2023-09-19T05:52:15;94925.38;;;20.75;53.33
33191;BME280;19554;42.652;23.364;2023-09-19T05:54:42;94916.66;;;20.82;53.18
33191;BME280;19554;42.652;23.364;2023-09-19T05:57:08;94919.97;;;20.91;52.52
33191;BME280;19554;42.652;23.364;2023-09-19T05:59:33;94918.41;;;20.50;53.41
33191;BME280;19554;42.652;23.364;2023-09-19T06:01:59;94919.22;;;20.13;54.65
33191;BME280;19554;42.652;23.364;2023-09-19T06:04:25;94922.19;;;19.96;55.43
33191;BME280;19554;42.652;23.364;2023-09-19T06:06:50;94914.97;;;20.00;55.30
33191;BME280;19554;42.652;23.364;2023-09-19T06:09:16;94909.75;;;20.20;55.10
33191;BME280;19554;42.652;23.364;2023-09-19T06:11:42;94919.94;;;20.10;55.30
33191;BME280;19554;42.652;23.364;2023-09-19T06:14:07;94910.44;;;20.17;55.29
33191;BME280;19554;42.652;23.364;2023-09-19T06:16:35;94908.63;;;19.96;55.62
33191;BME280;19554;42.652;23.364;2023-09-19T06:19:00;94909.09;;;20.10;55.58
33191;BME280;19554;42.652;23.364;2023-09-19T06:21:29;94903.44;;;20.28;55.33
33191;BME280;19554;42.652;23.364;2023-09-19T06:23:57;94909.72;;;20.56;54.59
33191;BME280;19554;42.652;23.364;2023-09-19T06:26:23;94915.94;;;20.45;54.47
33191;BME280;19554;42.652;23.364;2023-09-19T06:28:48;94902.47;;;20.48;54.43
33191;BME280;19554;42.652;23.364;2023-09-19T06:31:13;94921.69;;;20.43;54.14
33191;BME280;19554;42.652;23.364;2023-09-19T06:33:39;94911.38;;;20.61;54.05
33191;BME280;19554;42.652;23.364;2023-09-19T06:36:05;94893.63;;;20.64;53.89
33191;BME280;19554;42.652;23.364;2023-09-19T06:38:30;94900.84;;;20.72;53.46
33191;BME280;19554;42.652;23.364;2023-09-19T06:40:58;94898.66;;;20.77;53.22
33191;BME280;19554;42.652;23.364;2023-09-19T06:43:23;94900.56;;;20.89;52.65
33191;BME280;19554;42.652;23.364;2023-09-19T06:45:49;94910.91;;;20.71;53.13
33191;BME280;19554;42.652;23.364;2023-09-19T06:48:15;94906.53;;;20.54;53.35
33191;BME280;19554;42.652;23.364;2023-09-19T06:50:40;94904.63;;;20.55;53.44
33191;BME280;19554;42.652;23.364;2023-09-19T06:53:06;94917.22;;;20.75;52.88
33191;BME280;19554;42.652;23.364;2023-09-19T06:55:32;94916.22;;;20.68;53.08
33191;BME280;19554;42.652;23.364;2023-09-19T06:57:57;94915.22;;;20.60;53.44
33191;BME280;19554;42.652;23.364;2023-09-19T07:00:23;94914.09;;;20.49;54.08
33191;BME280;19554;42.652;23.364;2023-09-19T07:02:58;94910.25;;;20.50;54.18
33191;BME280;19554;42.652;23.364;2023-09-19T07:05:25;94912.19;;;20.49;54.39
33191;BME280;19554;42.652;23.364;2023-09-19T07:07:52;94922.81;;;20.54;54.72
33191;BME280;19554;42.652;23.364;2023-09-19T07:10:19;94922.00;;;20.66;54.18
33191;BME280;19554;42.652;23.364;2023-09-19T07:12:45;94917.50;;;20.58;54.55
33191;BME280;19554;42.652;23.364;2023-09-19T07:15:10;94923.53;;;20.51;54.91
33191;BME280;19554;42.652;23.364;2023-09-19T07:17:35;94918.72;;;20.61;54.77
33191;BME280;19554;42.652;23.364;2023-09-19T07:20:01;94919.84;;;20.72;54.45
33191;BME280;19554;42.652;23.364;2023-09-19T07:22:32;94920.28;;;20.74;54.30
33191;BME280;19554;42.652;23.364;2023-09-19T07:24:57;94921.44;;;20.61;54.63
33191;BME280;19554;42.652;23.364;2023-09-19T07:27:23;94916.00;;;20.61;54.47
33191;BME280;19554;42.652;23.364;2023-09-19T07:29:48;94919.88;;;20.59;54.63
33191;BME280;19554;42.652;23.364;2023-09-19T07:32:13;94920.75;;;20.64;54.38
33191;BME280;19554;42.652;23.364;2023-09-19T07:34:39;94923.03;;;20.62;54.12
33191;BME280;19554;42.652;23.364;2023-09-19T07:37:05;94917.06;;;20.56;54.70
33191;BME280;19554;42.652;23.364;2023-09-19T07:39:31;94915.09;;;20.69;54.05
33191;BME280;19554;42.652;23.364;2023-09-19T07:41:56;94924.63;;;20.63;54.00
33191;BME280;19554;42.652;23.364;2023-09-19T07:44:22;94913.75;;;20.63;53.59
33191;BME280;19554;42.652;23.364;2023-09-19T07:46:47;94917.16;;;20.47;53.99
33191;BME280;19554;42.652;23.364;2023-09-19T07:49:16;94926.19;;;20.64;53.86
33191;BME280;19554;42.652;23.364;2023-09-19T07:51:42;94912.41;;;20.44;54.47
33191;BME280;19554;42.652;23.364;2023-09-19T07:54:11;94920.69;;;20.48;54.67
33191;BME280;19554;42.652;23.364;2023-09-19T07:56:37;94924.63;;;20.63;54.32
33191;BME280;19554;42.652;23.364;2023-09-19T07:59:02;94916.38;;;20.47;54.89
33191;BME280;19554;42.652;23.364;2023-09-19T08:01:27;94923.72;;;20.34;55.06
33191;BME280;19554;42.652;23.364;2023-09-19T08:03:53;94919.53;;;20.49;55.51
33191;BME280;19554;42.652;23.364;2023-09-19T08:06:18;94925.91;;;20.81;54.02
33191;BME280;19554;42.652;23.364;2023-09-19T08:08:45;94919.25;;;21.06;53.32
33191;BME280;19554;42.652;23.364;2023-09-19T08:11:11;94922.53;;;21.28;52.76
33191;BME280;19554;42.652;23.364;2023-09-19T08:13:46;94915.53;;;21.27;52.81
33191;BME280;19554;42.652;23.364;2023-09-19T08:16:13;94913.06;;;21.22;52.81
33191;BME280;19554;42.652;23.364;2023-09-19T08:18:40;94913.06;;;21.22;52.55
33191;BME280;19554;42.652;23.364;2023-09-19T08:21:06;94901.66;;;21.44;51.88
33191;BME280;19554;42.652;23.364;2023-09-19T08:23:36;94910.50;;;21.41;52.24
33191;BME280;19554;42.652;23.364;2023-09-19T08:26:01;94901.03;;;21.35;52.40
33191;BME280;19554;42.652;23.364;2023-09-19T08:28:31;94896.28;;;21.64;51.93
33191;BME280;19554;42.652;23.364;2023-09-19T08:31:00;94885.25;;;21.88;51.27
33191;BME280;19554;42.652;23.364;2023-09-19T08:33:26;94889.97;;;21.91;51.19
33191;BME280;19554;42.652;23.364;2023-09-19T08:35:51;94895.94;;;21.81;51.16
33191;BME280;19554;42.652;23.364;2023-09-19T08:38:17;94897.00;;;21.92;50.55
33191;BME280;19554;42.652;23.364;2023-09-19T08:40:42;94904.16;;;22.00;50.24
33191;BME280;19554;42.652;23.364;2023-09-19T08:43:08;94910.47;;;22.05;50.11
33191;BME280;19554;42.652;23.364;2023-09-19T08:45:34;94903.38;;;22.00;50.63
33191;BME280;19554;42.652;23.364;2023-09-19T08:50:31;94894.00;;;21.97;50.82
33191;BME280;19554;42.652;23.364;2023-09-19T08:52:58;94889.81;;;22.35;49.52
33191;BME280;19554;42.652;23.364;2023-09-19T08:55:28;94887.44;;;22.50;49.05
33191;BME280;19554;42.652;23.364;2023-09-19T08:58:00;94890.38;;;22.60;48.56
33191;BME280;19554;42.652;23.364;2023-09-19T09:00:27;94888.13;;;22.66;48.06
33191;BME280;19554;42.652;23.364;2023-09-19T09:02:52;94885.84;;;22.68;47.96
33191;BME280;19554;42.652;23.364;2023-09-19T09:05:19;94893.56;;;22.66;47.74
33191;BME280;19554;42.652;23.364;2023-09-19T09:07:48;94880.69;;;22.63;47.93
33191;BME280;19554;42.652;23.364;2023-09-19T09:10:15;94884.69;;;22.69;47.93
33191;BME280;19554;42.652;23.364;2023-09-19T09:12:41;94874.75;;;22.77;47.74
33191;BME280;19554;42.652;23.364;2023-09-19T09:15:08;94879.69;;;22.71;47.34
33191;BME280;19554;42.652;23.364;2023-09-19T09:17:36;94868.38;;;22.69;47.35
33191;BME280;19554;42.652;23.364;2023-09-19T09:20:02;94878.13;;;22.51;47.99
33191;BME280;19554;42.652;23.364;2023-09-19T09:22:30;94874.81;;;22.41;48.71
33191;BME280;19554;42.652;23.364;2023-09-19T09:24:57;94867.59;;;22.68;48.40
33191;BME280;19554;42.652;23.364;2023-09-19T09:27:29;94865.53;;;22.81;47.66
33191;BME280;19554;42.652;23.364;2023-09-19T09:29:54;94857.22;;;22.93;47.79
33191;BME280;19554;42.652;23.364;2023-09-19T09:34:46;94863.19;;;23.22;47.06
33191;BME280;19554;42.652;23.364;2023-09-19T09:37:15;94856.22;;;23.25;47.17
33191;BME280;19554;42.652;23.364;2023-09-19T09:39:40;94853.34;;;23.37;46.02
33191;BME280;19554;42.652;23.364;2023-09-19T09:42:28;94852.19;;;23.15;46.98
33191;BME280;19554;42.652;23.364;2023-09-19T09:47:46;94847.72;;;23.26;46.27
33191;BME280;19554;42.652;23.364;2023-09-19T09:50:30;94846.06;;;23.22;46.41
33191;BME280;19554;42.652;23.364;2023-09-19T09:53:31;94836.81;;;23.26;46.54
33191;BME280;19554;42.652;23.364;2023-09-19T09:56:07;94833.81;;;23.35;46.19
33191;BME280;19554;42.652;23.364;2023-09-19T09:58:50;94822.25;;;23.41;46.11
33191;BME280;19554;42.652;23.364;2023-09-19T10:01:17;94828.56;;;23.00;47.61
33191;BME280;19554;42.652;23.364;2023-09-19T10:03:43;94827.25;;;23.13;47.19
33191;BME280;19554;42.652;23.364;2023-09-19T10:06:12;94820.34;;;23.19;47.27
33191;BME280;19554;42.652;23.364;2023-09-19T10:08:57;94830.19;;;23.27;46.78
33191;BME280;19554;42.652;23.364;2023-09-19T10:11:27;94823.63;;;23.28;46.92
33191;BME280;19554;42.652;23.364;2023-09-19T10:13:55;94829.38;;;23.46;46.65
33191;BME280;19554;42.652;23.364;2023-09-19T10:16:20;94822.59;;;23.36;46.29
33191;BME280;19554;42.652;23.364;2023-09-19T10:18:47;94815.31;;;23.21;46.85
33191;BME280;19554;42.652;23.364;2023-09-19T10:21:17;94823.19;;;23.26;47.18
33191;BME280;19554;42.652;23.364;2023-09-19T10:23:47;94816.59;;;23.27;46.52
33191;BME280;19554;42.652;23.364;2023-09-19T10:26:16;94816.09;;;22.99;47.21
33191;BME280;19554;42.652;23.364;2023-09-19T10:28:42;94814.78;;;23.12;47.01
33191;BME280;19554;42.652;23.364;2023-09-19T10:31:07;94816.47;;;23.20;46.95
33191;BME280;19554;42.652;23.364;2023-09-19T10:33:35;94811.88;;;23.24;47.10
33191;BME280;19554;42.652;23.364;2023-09-19T10:36:01;94811.88;;;23.24;47.34
33191;BME280;19554;42.652;23.364;2023-09-19T10:38:29;94804.56;;;23.28;47.11
33191;BME280;19554;42.652;23.364;2023-09-19T10:40:57;94806.72;;;23.42;46.65
33191;BME280;19554;42.652;23.364;2023-09-19T10:43:31;94803.75;;;23.51;46.63
33191;BME280;19554;42.652;23.364;2023-09-19T10:46:00;94803.00;;;23.54;45.88
33191;BME280;19554;42.652;23.364;2023-09-19T10:48:26;94801.63;;;23.63;45.85
33191;BME280;19554;42.652;23.364;2023-09-19T10:54:08;94802.97;;;23.73;45.56
33191;BME280;19554;42.652;23.364;2023-09-19T10:56:36;94794.00;;;23.50;45.94
33191;BME280;19554;42.652;23.364;2023-09-19T10:59:07;94791.00;;;23.32;46.53
33191;BME280;19554;42.652;23.364;2023-09-19T11:01:43;94790.44;;;23.46;46.31
33191;BME280;19554;42.652;23.364;2023-09-19T11:07:13;94790.91;;;23.74;45.86
33191;BME280;19554;42.652;23.364;2023-09-19T11:09:47;94784.72;;;23.77;45.86
33191;BME280;19554;42.652;23.364;2023-09-19T11:12:57;94784.59;;;23.97;45.04
33191;BME280;19554;42.652;23.364;2023-09-19T11:15:06;94782.47;;;23.83;45.36
33191;BME280;19554;42.652;23.364;2023-09-19T11:17:33;94777.81;;;23.83;45.52
33191;BME280;19554;42.652;23.364;2023-09-19T11:30:47;94759.88;;;24.43;44.08
33191;BME280;19554;42.652;23.364;2023-09-19T11:36:29;94767.44;;;24.26;44.82
33191;BME280;19554;42.652;23.364;2023-09-19T11:46:16;94729.13;;;24.16;45.03
33191;BME280;19554;42.652;23.364;2023-09-19T11:48:47;94728.34;;;24.15;44.96
33191;BME280;19554;42.652;23.364;2023-09-19T11:51:14;94726.88;;;24.21;44.97
33191;BME280;19554;42.652;23.364;2023-09-19T11:53:51;94723.72;;;24.19;45.69
33191;BME280;19554;42.652;23.364;2023-09-19T11:56:20;94714.47;;;24.27;44.68
33191;BME280;19554;42.652;23.364;2023-09-19T11:58:48;94717.28;;;24.34;44.50
33191;BME280;19554;42.652;23.364;2023-09-19T12:01:14;94718.53;;;24.41;44.61
33191;BME280;19554;42.652;23.364;2023-09-19T12:03:45;94720.94;;;24.46;44.66
33191;BME280;19554;42.652;23.364;2023-09-19T12:06:13;94722.97;;;24.52;44.79
33191;BME280;19554;42.652;23.364;2023-09-19T12:08:39;94718.28;;;24.53;44.45
33191;BME280;19554;42.652;23.364;2023-09-19T12:11:07;94719.53;;;24.59;44.56
33191;BME280;19554;42.652;23.364;2023-09-19T12:13:40;94718.81;;;24.66;44.52
33191;BME280;19554;42.652;23.364;2023-09-19T12:16:16;94711.78;;;24.68;44.05
33191;BME280;19554;42.652;23.364;2023-09-19T12:18:43;94710.28;;;24.71;43.72
33191;BME280;19554;42.652;23.364;2023-09-19T12:21:20;94702.47;;;24.69;43.64
33191;BME280;19554;42.652;23.364;2023-09-19T12:26:52;94698.25;;;24.75;44.02
33191;BME280;19554;42.652;23.364;2023-09-19T12:29:20;94698.72;;;24.88;43.45
33191;BME280;19554;42.652;23.364;2023-09-19T12:31:49;94697.19;;;24.91;43.65
33191;BME280;19554;42.652;23.364;2023-09-19T12:34:25;94689.66;;;24.77;43.34
33191;BME280;19554;42.652;23.364;2023-09-19T12:37:05;94684.66;;;24.82;43.64
33191;BME280;19554;42.652;23.364;2023-09-19T12:39:36;94686.91;;;24.73;43.98
33191;BME280;19554;42.652;23.364;2023-09-19T12:42:02;94684.59;;;24.75;43.62
33191;BME280;19554;42.652;23.364;2023-09-19T12:44:29;94673.66;;;24.75;43.98
33191;BME280;19554;42.652;23.364;2023-09-19T12:46:54;94673.59;;;24.68;43.83
33191;BME280;19554;42.652;23.364;2023-09-19T12:49:22;94668.41;;;24.56;44.52
33191;BME280;19554;42.652;23.364;2023-09-19T12:51:48;94668.81;;;24.58;44.55
33191;BME280;19554;42.652;23.364;2023-09-19T12:54:14;94672.78;;;24.64;44.38
33191;BME280;19554;42.652;23.364;2023-09-19T12:56:41;94673.19;;;24.66;44.37
33191;BME280;19554;42.652;23.364;2023-09-19T12:59:12;94672.50;;;24.76;44.32
33191;BME280;19554;42.652;23.364;2023-09-19T13:01:38;94679.22;;;24.86;43.79
33191;BME280;19554;42.652;23.364;2023-09-19T13:04:19;94667.53;;;24.86;43.68
33191;BME280;19554;42.652;23.364;2023-09-19T13:09:12;94659.03;;;24.98;43.33
33191;BME280;19554;42.652;23.364;2023-09-19T13:11:39;94652.81;;;25.01;43.47
33191;BME280;19554;42.652;23.364;2023-09-19T13:14:23;94648.94;;;25.09;43.19
33191;BME280;19554;42.652;23.364;2023-09-19T13:17:02;94649.88;;;25.20;43.30
33191;BME280;19554;42.652;23.364;2023-09-19T13:24:51;94646.75;;;25.22;43.11
33191;BME280;19554;42.652;23.364;2023-09-19T13:27:16;94644.38;;;25.17;43.30
33191;BME280;19554;42.652;23.364;2023-09-19T13:29:42;94643.22;;;25.21;43.03
33191;BME280;19554;42.652;23.364;2023-09-19T13:32:07;94634.28;;;25.24;43.15
33191;BME280;19554;42.652;23.364;2023-09-19T13:34:36;94632.19;;;25.07;43.82
33191;BME280;19554;42.652;23.364;2023-09-19T13:37:02;94624.38;;;25.09;43.57
33191;BME280;19554;42.652;23.364;2023-09-19T13:39:29;94626.06;;;25.21;43.59
33191;BME280;19554;42.652;23.364;2023-09-19T13:41:54;94624.91;;;25.25;43.43
33191;BME280;19554;42.652;23.364;2023-09-19T13:44:20;94621.78;;;25.23;43.32
33191;BME280;19554;42.652;23.364;2023-09-19T13:46:45;94631.16;;;25.29;43.29
33191;BME280;19554;42.652;23.364;2023-09-19T13:49:10;94624.59;;;25.38;43.35